Portada
METAR-TAF:

METAR-TAF

Aeroports :

Udon Thani, Tailàndia

latitud: 17-23N, longitud: 102-48E, altitud: 177 m

Observació

L'informe es va fer fa 55 minuts, a les 08:00 UTC
Vent 5 kt del Nord-Est, variant entre Nord i Est
Temperatura 29°C
Humitat 40%
Pressió 1010 hPa
Visibilitat 10 km o més
sense núvols per sota de 1500 mi sense presència de cumulonimbus.

METAR: VTUD 240800Z 05005KT 360V090 CAVOK 29/14 Q1010 NOSIG

Hora: 15:55 (08:55 UTC)

Pronòstic

L'informe es va fer fa 3 hores i 55 minuts, a les 05:00 UTC
Pronòstic vàlid del 24 a les 06 UTC al 25 a les 06 UTC
Vent 6 kt del Est
Visibilitat 10 km o més
Escasses núvols a una alçada de 3000 ft

TAF: VTUD 240500Z 2406/2506 08006KT 9999 FEW030

Observacions i pronòstics meteorològics de més de 4000 aeroports (METAR i TAF).

Les estacions disponibles són els punts grocs i vermells al mapa.

Posi el ratolí al punt desitjat per veure el nom de l'estació.

Feu clic per veure les observacions i els pronòstics meteorològics.

Per canviar el mapa: feu clic els botons verds amb una creu de color negre per apropar; al botó verd amb un guió per allunyar la imatge; o en les fletxes verdes per a mapes adjacents.


METAR-TAF: